Weather at Taiwan Taoyuan International Airport

Public forecast

Using degrees Celsius for public forecast. Weather courtesy of forecast.io.

Current aviation weather report (METAR) for Taiwan Taoyuan International Airport

2024/06/18 18:00 (retrieved 22 minutes ago)

RCTP 181800Z 15003KT 110V200 9999 FEW015 BKN025 27/27 Q1007 NOSIG RMK A2976

Aviation forecast (TAF) for Taiwan Taoyuan International Airport

2024/06/18 18:00 (retrieved 22 minutes ago)

TAF RCTP 181700Z 1818/1924 21005KT 9999 FEW015 BKN032 TEMPO 1818/1824 15005KT 5000 BR BECMG 1900/1902 29008KT TEMPO 1906/1910 12005KT 5000 SHRA FEW012 FEW015CB BKN018 BECMG 1910/1912 21005KT TEMPO 1916/1922 15005KT